createdAt,value
2023-05-05T00:18:31.541Z,240
2023-05-05T00:38:31.564Z,239
2023-05-05T00:58:31.536Z,240
2023-05-05T01:18:31.549Z,239
2023-05-05T01:38:31.560Z,234
2023-05-05T01:58:31.526Z,239
2023-05-05T02:18:31.539Z,240
2023-05-05T02:38:31.553Z,238
2023-05-05T02:58:31.529Z,241
2023-05-05T03:18:31.555Z,239
2023-05-05T03:38:31.559Z,234
2023-05-05T03:58:31.551Z,236
2023-05-05T04:18:31.560Z,234
2023-05-05T04:38:31.585Z,235
2023-05-05T04:58:31.584Z,238
2023-05-05T05:18:31.592Z,237
2023-05-05T05:38:31.542Z,236
2023-05-05T05:58:31.549Z,237
2023-05-05T06:18:31.547Z,241
2023-05-05T06:38:31.547Z,241
2023-05-05T06:58:31.521Z,242
2023-05-05T07:18:31.570Z,256
2023-05-05T07:38:31.573Z,248
2023-05-05T07:58:31.613Z,244
2023-05-05T08:18:31.539Z,244
2023-05-05T08:38:31.548Z,234
2023-05-05T08:58:31.512Z,237
2023-05-05T09:18:31.536Z,238
2023-05-05T09:38:31.526Z,236
2023-05-05T09:58:31.622Z,233
2023-05-05T10:18:31.523Z,234
2023-05-05T10:38:31.512Z,231
2023-05-05T10:58:31.487Z,219
2023-05-05T11:18:31.482Z,222
2023-05-05T11:38:31.477Z,219
2023-05-05T11:58:31.471Z,226
2023-05-05T12:18:31.474Z,211
2023-05-05T13:58:31.454Z,236
2023-05-05T14:18:31.460Z,241
2023-05-05T14:38:31.489Z,241
2023-05-05T14:58:31.440Z,240
2023-05-05T15:18:31.405Z,229
2023-05-05T15:38:31.434Z,210
2023-05-05T15:58:31.430Z,234
2023-05-05T16:18:31.414Z,237
2023-05-05T16:38:31.501Z,246
2023-05-05T16:58:31.448Z,255
2023-05-05T17:38:31.400Z,253
2023-05-05T17:58:31.416Z,258
2023-05-05T18:18:31.466Z,271
2023-05-05T18:38:31.426Z,277
2023-05-05T18:58:31.440Z,271
2023-05-05T19:18:31.406Z,271
2023-05-05T19:38:31.407Z,269
2023-05-05T19:58:31.435Z,271
2023-05-05T20:18:31.430Z,269
2023-05-05T20:38:31.396Z,270
2023-05-05T20:58:31.411Z,269
2023-05-05T21:18:31.387Z,267
2023-05-05T21:38:31.449Z,263
2023-05-05T21:58:31.414Z,263
2023-05-05T22:18:31.426Z,261
2023-05-05T22:38:31.439Z,262
2023-05-05T22:58:31.402Z,258
2023-05-05T23:18:31.390Z,256
2023-05-05T23:38:31.426Z,253
2023-05-05T23:58:31.421Z,250
